Time;durP1;ratioP1;P1;durP2;ratioP2;P2;SDS_P1;SDS_P2;PMS_P1;PMS_P2;Temp;Humidity;BMP_temperature;BMP_pressure;BME280_temperature;BME280_humidity;BME280_pressure;Samples;Min_cycle;Max_cycle;Signal;HPM_P1;HPM_P2
2024/01/28 00:00:19;;;;;;;2.60;2.20;;;18.80;41.00;;;;;;5019192;28;20301;-70
2024/01/28 00:02:45;;;;;;;2.03;1.93;;;18.80;41.00;;;;;;5022262;28;20444;-71
2024/01/28 00:05:14;;;;;;;2.60;2.40;;;18.70;40.90;;;;;;5027655;28;21009;-71
2024/01/28 00:07:39;;;;;;;1.80;1.70;;;18.70;40.90;;;;;;5023890;28;20221;-70
2024/01/28 00:10:07;;;;;;;2.40;2.20;;;18.70;40.90;;;;;;5024199;28;20436;-70
2024/01/28 00:12:32;;;;;;;2.27;2.10;;;18.70;40.90;;;;;;5012890;28;20281;-73
2024/01/28 00:14:58;;;;;;;2.03;1.80;;;18.70;40.90;;;;;;5013221;28;20471;-72
2024/01/28 00:17:24;;;;;;;3.10;2.10;;;18.70;40.90;;;;;;5014427;28;20700;-73
2024/01/28 00:19:49;;;;;;;2.00;1.90;;;18.70;40.90;;;;;;5026789;28;20442;-73
2024/01/28 00:22:17;;;;;;;2.37;2.17;;;18.70;40.90;;;;;;5025620;28;20223;-72
2024/01/28 00:24:43;;;;;;;2.13;1.93;;;18.70;40.90;;;;;;5019359;28;20218;-73
2024/01/28 00:27:08;;;;;;;2.37;2.17;;;18.70;40.90;;;;;;5029741;28;20444;-72
2024/01/28 00:29:34;;;;;;;2.30;2.00;;;18.70;40.90;;;;;;5031673;28;20238;-72
2024/01/28 00:32:00;;;;;;;2.07;1.87;;;18.70;40.90;;;;;;5037190;28;20257;-73
2024/01/28 00:34:26;;;;;;;1.87;1.77;;;18.70;41.00;;;;;;5015359;28;20597;-73
2024/01/28 00:36:51;;;;;;;2.30;2.17;;;18.70;41.00;;;;;;5017525;28;20222;-73
2024/01/28 00:39:17;;;;;;;2.27;2.17;;;18.70;40.90;;;;;;5027324;28;21301;-73
2024/01/28 00:41:43;;;;;;;2.70;2.40;;;18.70;41.00;;;;;;5026410;28;20226;-76
2024/01/28 00:44:08;;;;;;;1.90;1.80;;;18.70;40.90;;;;;;5023804;28;20353;-73
2024/01/28 00:46:34;;;;;;;2.07;1.97;;;18.70;40.90;;;;;;5019114;28;20215;-73
2024/01/28 00:49:01;;;;;;;1.87;1.70;;;18.70;41.00;;;;;;5025678;28;20233;-71
2024/01/28 00:51:27;;;;;;;2.40;2.20;;;18.70;41.00;;;;;;5027084;28;20257;-73
2024/01/28 00:53:53;;;;;;;2.07;1.93;;;18.70;40.90;;;;;;5028481;28;20592;-74
2024/01/28 00:56:18;;;;;;;2.20;2.10;;;18.70;40.90;;;;;;5020275;28;20472;-74
2024/01/28 00:58:45;;;;;;;2.20;2.00;;;18.70;40.90;;;;;;5027885;28;20229;-73
2024/01/28 01:01:10;;;;;;;2.10;2.00;;;18.70;41.00;;;;;;5050480;28;20229;-72
2024/01/28 01:03:36;;;;;;;2.20;2.00;;;18.70;40.90;;;;;;5041263;28;20522;-73
2024/01/28 01:06:02;;;;;;;1.60;1.40;;;18.70;41.00;;;;;;5033443;28;20568;-73
2024/01/28 01:08:27;;;;;;;2.23;2.03;;;18.70;41.70;;;;;;5031395;28;20226;-70
2024/01/28 01:10:53;;;;;;;1.60;1.50;;;18.70;40.90;;;;;;5032452;28;20232;-70
2024/01/28 01:13:19;;;;;;;2.03;1.93;;;18.70;40.90;;;;;;5035065;28;20242;-70
2024/01/28 01:15:45;;;;;;;2.97;2.30;;;18.70;41.00;;;;;;5027326;28;20712;-70
2024/01/28 01:18:11;;;;;;;3.17;1.80;;;18.70;40.90;;;;;;5019853;28;20455;-71
2024/01/28 01:20:37;;;;;;;1.60;1.50;;;18.70;40.90;;;;;;5023829;28;20333;-69
2024/01/28 01:23:03;;;;;;;3.23;2.27;;;18.70;40.90;;;;;;5028150;28;20455;-70
2024/01/28 01:25:28;;;;;;;2.70;2.03;;;18.70;40.90;;;;;;5021270;28;20220;-71
2024/01/28 01:27:54;;;;;;;1.73;1.63;;;18.70;41.00;;;;;;5021102;28;20426;-71
2024/01/28 01:30:19;;;;;;;1.90;1.80;;;18.70;40.90;;;;;;5021160;28;20281;-69
2024/01/28 01:32:45;;;;;;;2.23;1.90;;;18.70;40.90;;;;;;5024833;28;20697;-70
2024/01/28 01:35:14;;;;;;;1.87;1.77;;;18.70;40.90;;;;;;5031983;28;20294;-70
2024/01/28 01:37:40;;;;;;;1.93;1.83;;;18.70;40.90;;;;;;5036661;28;20288;-70
2024/01/28 01:40:06;;;;;;;1.90;1.80;;;18.70;40.90;;;;;;5037200;28;20480;-70
2024/01/28 01:42:32;;;;;;;2.07;1.93;;;18.70;40.90;;;;;;5027065;28;20438;-70
2024/01/28 01:44:57;;;;;;;2.00;1.80;;;18.70;40.90;;;;;;5031523;28;20442;-71
2024/01/28 01:47:24;;;;;;;1.97;1.77;;;18.70;40.90;;;;;;5019798;28;20678;-69
2024/01/28 01:49:50;;;;;;;1.80;1.70;;;18.70;40.90;;;;;;5030013;28;20229;-71
2024/01/28 01:52:16;;;;;;;1.80;1.70;;;18.70;40.90;;;;;;5037073;28;20445;-71
2024/01/28 01:54:45;;;;;;;2.10;2.00;;;18.70;40.90;;;;;;5029993;28;20356;-69
2024/01/28 01:57:12;;;;;;;1.70;1.60;;;18.70;40.90;;;;;;5019203;28;20464;-71
2024/01/28 01:59:38;;;;;;;1.77;1.67;;;18.70;40.80;;;;;;5022741;28;20509;-68
2024/01/28 02:02:07;;;;;;;1.87;1.67;;;18.70;40.90;;;;;;5022134;28;20458;-69
2024/01/28 02:04:33;;;;;;;2.17;2.07;;;18.70;40.80;;;;;;5019921;28;20455;-72
2024/01/28 02:06:59;;;;;;;1.90;1.80;;;18.70;40.80;;;;;;5027758;28;20470;-70
2024/01/28 02:09:25;;;;;;;1.80;1.70;;;18.70;40.90;;;;;;5024873;28;21200;-69
2024/01/28 02:11:50;;;;;;;2.07;1.80;;;18.70;40.90;;;;;;5024718;28;20283;-71
2024/01/28 02:14:29;;;;;;;2.40;1.93;;;18.70;40.90;;;;;;5019639;28;20721;-68
2024/01/28 02:16:55;;;;;;;1.73;1.63;;;18.70;40.90;;;;;;5030718;28;20728;-70
2024/01/28 02:19:21;;;;;;;2.07;1.97;;;18.70;40.90;;;;;;5022513;28;20458;-72
2024/01/28 02:21:47;;;;;;;2.50;2.40;;;18.70;40.90;;;;;;5015175;28;20447;-69
2024/01/28 02:24:13;;;;;;;2.20;2.00;;;18.70;40.80;;;;;;5040284;28;20464;-69
2024/01/28 02:26:39;;;;;;;2.37;2.00;;;18.70;40.80;;;;;;5026125;28;20313;-72
2024/01/28 02:29:05;;;;;;;2.00;1.90;;;18.70;40.80;;;;;;5028167;28;20799;-69
2024/01/28 02:31:31;;;;;;;1.70;1.60;;;18.70;40.90;;;;;;5035989;28;20451;-72
2024/01/28 02:33:58;;;;;;;1.70;1.60;;;18.70;40.80;;;;;;5015550;28;20236;-69
2024/01/28 02:36:24;;;;;;;1.93;1.83;;;18.70;40.80;;;;;;5035479;28;20590;-70
2024/01/28 02:38:49;;;;;;;2.10;1.90;;;18.70;40.80;;;;;;5025975;28;20461;-70
2024/01/28 02:41:15;;;;;;;1.90;1.80;;;18.70;40.80;;;;;;5020059;28;20464;-70
2024/01/28 02:43:40;;;;;;;2.07;1.97;;;18.70;40.80;;;;;;5018264;28;20234;-68
2024/01/28 02:46:06;;;;;;;2.93;2.73;;;18.60;40.70;;;;;;5014704;28;20227;-69
2024/01/28 02:48:31;;;;;;;1.80;1.70;;;18.60;40.70;;;;;;5024407;28;20285;-69
2024/01/28 02:50:57;;;;;;;2.13;2.00;;;18.70;40.80;;;;;;5031143;28;20605;-71
2024/01/28 02:53:23;;;;;;;2.30;2.00;;;18.70;40.80;;;;;;5027724;28;20215;-68
2024/01/28 02:55:55;;;;;;;1.83;1.73;;;18.70;40.80;;;;;;5026766;28;20226;-69
2024/01/28 02:58:21;;;;;;;1.90;1.80;;;18.70;40.90;;;;;;5020645;28;20728;-69
2024/01/28 03:00:46;;;;;;;1.87;1.70;;;18.60;40.70;;;;;;5016587;28;20464;-68
2024/01/28 03:03:12;;;;;;;2.00;1.90;;;18.60;40.70;;;;;;5030315;28;20253;-71
2024/01/28 03:05:37;;;;;;;1.67;1.57;;;18.70;40.80;;;;;;5024112;28;20222;-69
2024/01/28 03:08:03;;;;;;;1.80;1.70;;;18.70;40.80;;;;;;5030315;28;20988;-68
2024/01/28 03:10:30;;;;;;;1.60;1.50;;;18.60;40.70;;;;;;5016448;28;20227;-70
2024/01/28 03:12:56;;;;;;;2.10;2.00;;;18.60;40.70;;;;;;5018410;28;20234;-70
2024/01/28 03:15:21;;;;;;;1.87;1.77;;;18.60;40.70;;;;;;5014936;28;20942;-69
2024/01/28 03:17:47;;;;;;;2.03;1.93;;;18.70;40.80;;;;;;5021565;28;20229;-68
2024/01/28 03:20:12;;;;;;;1.90;1.80;;;18.60;40.70;;;;;;5031482;28;20245;-70
2024/01/28 03:22:39;;;;;;;1.90;1.80;;;18.60;40.70;;;;;;5030318;28;20214;-70
2024/01/28 03:25:05;;;;;;;1.90;1.70;;;18.70;40.80;;;;;;5021887;28;20215;-70
2024/01/28 03:27:31;;;;;;;2.30;2.10;;;18.60;40.70;;;;;;5030188;28;20523;-70
2024/01/28 03:29:56;;;;;;;1.70;1.60;;;18.60;40.70;;;;;;5012830;28;20506;-74
2024/01/28 03:32:22;;;;;;;1.80;1.70;;;18.60;40.70;;;;;;5024859;28;20685;-75
2024/01/28 03:34:47;;;;;;;2.10;2.00;;;18.60;40.70;;;;;;5025486;28;20293;-75
2024/01/28 03:37:13;;;;;;;2.17;2.00;;;18.60;40.70;;;;;;5056699;28;20283;-74
2024/01/28 03:39:38;;;;;;;1.73;1.63;;;18.60;40.70;;;;;;5025653;28;20217;-74
2024/01/28 03:42:04;;;;;;;1.87;1.77;;;18.60;40.70;;;;;;5031638;28;20311;-74
2024/01/28 03:44:30;;;;;;;1.70;1.60;;;18.60;40.70;;;;;;5027219;28;20239;-74
2024/01/28 03:46:55;;;;;;;1.97;1.80;;;18.60;40.70;;;;;;5015223;28;20237;-75
2024/01/28 03:49:21;;;;;;;1.93;1.70;;;18.60;40.70;;;;;;5019446;28;20307;-74
2024/01/28 03:51:47;;;;;;;2.07;1.97;;;18.60;40.70;;;;;;5012155;28;20310;-75
2024/01/28 03:54:12;;;;;;;2.00;1.70;;;18.60;40.60;;;;;;5021416;28;20234;-74
2024/01/28 03:56:40;;;;;;;1.70;1.60;;;18.60;40.60;;;;;;5023334;28;20230;-71
2024/01/28 03:59:06;;;;;;;1.70;1.60;;;18.60;40.60;;;;;;5024633;28;20688;-74
2024/01/28 04:01:35;;;;;;;1.77;1.67;;;18.60;40.60;;;;;;5047272;28;20444;-74
2024/01/28 04:04:00;;;;;;;1.70;1.60;;;18.60;40.60;;;;;;5021281;28;20261;-74
2024/01/28 04:06:26;;;;;;;1.80;1.70;;;18.60;40.70;;;;;;5022030;28;20789;-74
2024/01/28 04:08:56;;;;;;;2.10;2.00;;;18.60;40.60;;;;;;5029853;28;20230;-74
2024/01/28 04:11:25;;;;;;;1.63;1.53;;;18.60;40.60;;;;;;5012642;28;20697;-74
2024/01/28 04:13:53;;;;;;;1.80;1.70;;;18.60;40.70;;;;;;5035363;28;20881;-72
2024/01/28 04:16:20;;;;;;;1.77;1.67;;;18.60;40.60;;;;;;5025242;28;20483;-74
2024/01/28 04:18:46;;;;;;;1.50;1.40;;;18.60;40.60;;;;;;5027244;28;20446;-74
2024/01/28 04:21:12;;;;;;;2.10;2.00;;;18.60;40.60;;;;;;5022895;28;20449;-73
2024/01/28 04:23:39;;;;;;;1.70;1.60;;;18.60;40.60;;;;;;5041449;28;20824;-75
2024/01/28 04:26:05;;;;;;;2.00;1.90;;;18.60;40.60;;;;;;5028909;28;20721;-74
2024/01/28 04:28:31;;;;;;;1.83;1.50;;;18.60;40.60;;;;;;5027084;28;20457;-73
2024/01/28 04:30:58;;;;;;;2.17;1.60;;;18.60;40.60;;;;;;5033535;28;20442;-72
2024/01/28 04:33:24;;;;;;;2.27;1.50;;;18.60;40.60;;;;;;5028130;28;20314;-72
2024/01/28 04:35:50;;;;;;;1.67;1.50;;;18.60;40.60;;;;;;5024161;28;20471;-72
2024/01/28 04:38:15;;;;;;;1.47;1.37;;;18.60;40.60;;;;;;5027502;28;20440;-71
2024/01/28 04:40:41;;;;;;;2.03;1.93;;;18.60;40.60;;;;;;5033960;28;20564;-68
2024/01/28 04:43:06;;;;;;;1.93;1.83;;;18.60;40.50;;;;;;5031863;28;20706;-70
2024/01/28 04:45:32;;;;;;;1.70;1.60;;;18.60;40.60;;;;;;5025795;28;20231;-69
2024/01/28 04:47:57;;;;;;;3.10;1.90;;;18.60;40.60;;;;;;5027097;28;20238;-69
2024/01/28 04:50:24;;;;;;;1.87;1.77;;;18.60;40.50;;;;;;5022163;28;20222;-70
2024/01/28 04:52:50;;;;;;;1.50;1.40;;;18.60;40.50;;;;;;5021507;28;20272;-69
2024/01/28 04:55:16;;;;;;;1.87;1.77;;;18.60;40.50;;;;;;5027724;28;20474;-70
2024/01/28 04:57:42;;;;;;;1.50;1.40;;;18.60;40.50;;;;;;5026981;28;20505;-72
2024/01/28 05:00:10;;;;;;;2.13;2.03;;;18.60;40.50;;;;;;5014133;28;20234;-71
2024/01/28 05:02:36;;;;;;;1.77;1.67;;;18.70;40.50;;;;;;5037089;28;20228;-69
2024/01/28 05:05:02;;;;;;;1.80;1.70;;;18.60;40.40;;;;;;5011719;28;20432;-68
2024/01/28 05:07:27;;;;;;;1.60;1.50;;;18.60;40.40;;;;;;5020572;28;20439;-71
2024/01/28 05:09:53;;;;;;;1.80;1.60;;;18.70;40.60;;;;;;5032472;28;20275;-69
2024/01/28 05:12:19;;;;;;;1.73;1.63;;;18.70;40.50;;;;;;5027980;28;20226;-68
2024/01/28 05:14:46;;;;;;;1.97;1.87;;;18.70;40.50;;;;;;5016745;28;20654;-68
2024/01/28 05:17:12;;;;;;;1.80;1.70;;;18.70;40.50;;;;;;5020912;28;20577;-68
2024/01/28 05:19:37;;;;;;;1.73;1.63;;;18.70;40.50;;;;;;5017984;28;20453;-67
2024/01/28 05:22:04;;;;;;;1.40;1.30;;;18.70;40.40;;;;;;5061974;28;20284;-68
2024/01/28 05:24:30;;;;;;;1.50;1.40;;;18.70;40.50;;;;;;5027795;28;20694;-68
2024/01/28 05:26:55;;;;;;;1.60;1.50;;;18.70;40.50;;;;;;5029865;28;20442;-68
2024/01/28 05:29:21;;;;;;;1.57;1.47;;;18.70;40.50;;;;;;5028163;28;20312;-69
2024/01/28 05:31:46;;;;;;;1.30;1.20;;;18.70;40.50;;;;;;5025860;28;20281;-70
2024/01/28 05:34:13;;;;;;;1.77;1.67;;;18.70;40.40;;;;;;5025310;28;21193;-71
2024/01/28 05:36:38;;;;;;;1.70;1.60;;;18.70;40.30;;;;;;5014916;28;20477;-69
2024/01/28 05:39:04;;;;;;;1.63;1.53;;;18.70;40.40;;;;;;5026855;28;20264;-69
2024/01/28 05:41:30;;;;;;;1.40;1.30;;;18.70;40.50;;;;;;5018796;28;20262;-68
2024/01/28 05:43:55;;;;;;;1.70;1.60;;;18.70;40.40;;;;;;5018628;28;20926;-69
2024/01/28 05:46:21;;;;;;;1.50;1.40;;;18.70;40.40;;;;;;5016350;28;20250;-68
2024/01/28 05:48:46;;;;;;;1.70;1.60;;;18.70;40.40;;;;;;5023715;28;20221;-71
2024/01/28 05:51:12;;;;;;;1.60;1.50;;;18.70;40.30;;;;;;5024379;28;20222;-68
2024/01/28 05:53:37;;;;;;;1.63;1.53;;;18.70;40.30;;;;;;5039345;28;20229;-68
2024/01/28 05:56:04;;;;;;;1.50;1.40;;;18.70;40.40;;;;;;5036227;28;20749;-69
2024/01/28 05:58:29;;;;;;;1.90;1.70;;;18.70;40.30;;;;;;5036524;28;20713;-70
2024/01/28 06:00:55;;;;;;;1.80;1.70;;;18.70;40.30;;;;;;5015486;28;20580;-68
2024/01/28 06:03:21;;;;;;;1.17;1.07;;;18.70;40.30;;;;;;5029768;28;20930;-68
2024/01/28 06:05:46;;;;;;;1.70;1.60;;;18.70;40.30;;;;;;5022639;28;20272;-68
2024/01/28 06:08:13;;;;;;;1.60;1.50;;;18.70;40.30;;;;;;5025434;28;20222;-69
2024/01/28 06:10:39;;;;;;;1.63;1.53;;;18.70;40.30;;;;;;5018580;28;20686;-68
2024/01/28 06:13:04;;;;;;;1.67;1.47;;;18.70;40.30;;;;;;5021418;28;20466;-69
2024/01/28 06:15:30;;;;;;;2.07;1.50;;;18.70;40.30;;;;;;5021146;28;20227;-69
2024/01/28 06:17:56;;;;;;;1.47;1.37;;;18.70;40.30;;;;;;5015146;28;20473;-69
2024/01/28 06:20:22;;;;;;;1.60;1.50;;;18.70;40.30;;;;;;5014553;28;20215;-72
2024/01/28 06:22:48;;;;;;;1.63;1.53;;;18.70;40.30;;;;;;5013681;28;20460;-70
2024/01/28 06:25:13;;;;;;;1.47;1.37;;;18.70;40.30;;;;;;5016943;28;20227;-69
2024/01/28 06:27:39;;;;;;;1.70;1.60;;;18.70;40.20;;;;;;5018947;28;20238;-68
2024/01/28 06:30:05;;;;;;;1.70;1.50;;;18.70;40.20;;;;;;5012702;28;21068;-68
2024/01/28 06:32:32;;;;;;;2.03;1.10;;;18.70;40.20;;;;;;5057266;28;20267;-69
2024/01/28 06:34:57;;;;;;;1.30;1.20;;;18.70;40.20;;;;;;5022694;28;20913;-69
2024/01/28 06:37:23;;;;;;;1.50;1.40;;;18.70;40.20;;;;;;5023492;28;20483;-68
2024/01/28 06:39:50;;;;;;;1.50;1.40;;;18.70;40.20;;;;;;5019151;28;20333;-70
2024/01/28 06:42:17;;;;;;;1.47;1.37;;;18.70;40.20;;;;;;5023717;28;20815;-73
2024/01/28 06:44:42;;;;;;;1.40;1.30;;;18.70;40.20;;;;;;5018132;28;20479;-68
2024/01/28 06:47:08;;;;;;;2.20;1.60;;;18.70;40.20;;;;;;5022980;28;20488;-69
2024/01/28 06:49:33;;;;;;;1.37;1.27;;;18.70;40.10;;;;;;5017966;28;20229;-69
2024/01/28 06:51:59;;;;;;;1.50;1.40;;;18.70;40.10;;;;;;5025563;28;20236;-68
2024/01/28 06:54:24;;;;;;;1.20;1.10;;;18.70;40.10;;;;;;5016139;28;20360;-69
2024/01/28 06:56:50;;;;;;;1.30;1.20;;;18.70;40.20;;;;;;5014445;28;20689;-70
2024/01/28 06:59:18;;;;;;;1.47;1.37;;;18.70;40.10;;;;;;5032632;28;20245;-69
2024/01/28 07:01:45;;;;;;;1.83;1.60;;;18.70;40.90;;;;;;5033408;28;20318;-69
2024/01/28 07:04:10;;;;;;;1.50;1.40;;;18.70;40.10;;;;;;5008593;28;20443;-73
2024/01/28 07:06:36;;;;;;;1.50;1.37;;;18.70;40.10;;;;;;5027601;28;20426;-70
2024/01/28 07:09:02;;;;;;;1.40;1.30;;;18.70;40.10;;;;;;5018367;28;20221;-69
2024/01/28 07:11:28;;;;;;;1.57;1.47;;;18.70;40.00;;;;;;5024368;28;20311;-72
2024/01/28 07:13:53;;;;;;;1.60;1.17;;;18.70;40.10;;;;;;5022398;28;20451;-69
2024/01/28 07:16:19;;;;;;;2.07;1.40;;;18.70;40.10;;;;;;5023678;28;20219;-72
2024/01/28 07:18:45;;;;;;;1.70;1.50;;;18.70;40.00;;;;;;5012745;28;20449;-69
2024/01/28 07:21:11;;;;;;;1.33;1.13;;;18.70;40.00;;;;;;5018941;28;20226;-71
2024/01/28 07:23:37;;;;;;;1.70;1.60;;;18.70;40.00;;;;;;5020462;28;20298;-70
2024/01/28 07:26:03;;;;;;;3.00;1.27;;;18.70;40.00;;;;;;5001463;28;20238;-70
2024/01/28 07:28:28;;;;;;;1.33;1.23;;;18.70;40.00;;;;;;5025728;28;20591;-70
2024/01/28 07:30:54;;;;;;;1.40;1.30;;;18.70;40.00;;;;;;5011769;28;20438;-70
2024/01/28 07:33:20;;;;;;;1.43;1.33;;;18.70;40.00;;;;;;5017095;28;20231;-69
2024/01/28 07:35:45;;;;;;;1.63;1.53;;;18.70;40.00;;;;;;5017996;28;20257;-71
2024/01/28 07:38:11;;;;;;;1.67;1.57;;;18.70;40.00;;;;;;5027283;28;20725;-72
2024/01/28 07:40:37;;;;;;;2.70;1.10;;;18.70;40.00;;;;;;5020923;28;20253;-72
2024/01/28 07:43:03;;;;;;;1.30;1.20;;;18.70;39.90;;;;;;5023074;28;20293;-70
2024/01/28 07:45:29;;;;;;;1.40;1.30;;;18.70;40.00;;;;;;5018746;28;21147;-71
2024/01/28 07:47:54;;;;;;;1.17;1.07;;;18.70;40.00;;;;;;5027948;28;20444;-73
2024/01/28 07:50:20;;;;;;;1.53;1.40;;;18.70;39.90;;;;;;5036688;28;20227;-70
2024/01/28 07:52:46;;;;;;;1.60;1.50;;;18.70;39.90;;;;;;5008435;28;20227;-71
2024/01/28 07:55:12;;;;;;;1.60;1.50;;;18.70;39.90;;;;;;5009997;28;20463;-76
2024/01/28 07:57:37;;;;;;;2.03;1.40;;;18.70;39.90;;;;;;5032208;28;20222;-72
2024/01/28 08:00:10;;;;;;;1.27;1.17;;;18.80;40.00;;;;;;5003936;28;20337;-74
2024/01/28 08:02:35;;;;;;;2.43;1.30;;;18.80;40.00;;;;;;5028860;28;20658;-68
2024/01/28 08:05:01;;;;;;;1.40;1.30;;;18.70;39.90;;;;;;5015761;28;20629;-71
2024/01/28 08:07:26;;;;;;;1.53;1.43;;;18.70;39.90;;;;;;5019536;28;20223;-68
2024/01/28 08:09:52;;;;;;;1.27;1.17;;;18.80;40.00;;;;;;5024085;28;20218;-69
2024/01/28 08:12:18;;;;;;;2.90;1.60;;;18.70;39.90;;;;;;5008834;28;20214;-69
2024/01/28 08:14:44;;;;;;;1.50;1.30;;;18.70;39.90;;;;;;5029002;28;20219;-72
2024/01/28 08:17:10;;;;;;;1.33;1.23;;;18.70;39.90;;;;;;5027693;28;20463;-69
2024/01/28 08:19:36;;;;;;;2.27;1.80;;;18.70;40.00;;;;;;5023517;28;20705;-70
2024/01/28 08:22:02;;;;;;;1.47;1.37;;;18.70;39.90;;;;;;5016340;28;20214;-71
2024/01/28 08:24:27;;;;;;;1.50;1.37;;;18.70;39.90;;;;;;5020203;28;20462;-70
2024/01/28 08:26:53;;;;;;;1.30;1.20;;;18.70;39.90;;;;;;5022990;28;20433;-69
2024/01/28 08:29:19;;;;;;;1.40;1.13;;;18.70;39.90;;;;;;5029707;28;20725;-69
2024/01/28 08:31:44;;;;;;;1.37;1.27;;;18.70;39.90;;;;;;5024404;28;20720;-69
2024/01/28 08:34:10;;;;;;;1.23;1.13;;;18.70;39.90;;;;;;5022638;28;20254;-71
2024/01/28 08:36:35;;;;;;;1.40;1.30;;;18.70;39.90;;;;;;5033996;28;20308;-71
2024/01/28 08:39:03;;;;;;;1.37;1.27;;;18.70;39.90;;;;;;5033545;28;20222;-69
2024/01/28 08:41:29;;;;;;;2.40;1.40;;;18.70;40.00;;;;;;5023905;28;20222;-70
2024/01/28 08:43:55;;;;;;;2.33;1.33;;;18.70;40.00;;;;;;5015575;28;21050;-71
2024/01/28 08:46:20;;;;;;;1.47;1.37;;;18.70;39.90;;;;;;5016344;28;20716;-70
2024/01/28 08:48:46;;;;;;;1.47;1.37;;;18.70;39.90;;;;;;5020012;28;20718;-70
2024/01/28 08:51:11;;;;;;;1.70;1.30;;;18.70;39.90;;;;;;5017805;28;20586;-70
2024/01/28 08:53:37;;;;;;;1.33;1.23;;;18.70;39.90;;;;;;5016447;28;20243;-69
2024/01/28 08:56:03;;;;;;;1.50;1.40;;;18.70;39.90;;;;;;5012398;28;20230;-72
2024/01/28 08:58:30;;;;;;;1.90;1.33;;;18.70;39.90;;;;;;5028851;28;20218;-72
2024/01/28 09:00:56;;;;;;;1.30;1.20;;;18.70;39.90;;;;;;5023777;28;20442;-73
2024/01/28 09:03:22;;;;;;;1.70;1.30;;;18.80;40.00;;;;;;5029558;28;20459;-70
2024/01/28 09:05:47;;;;;;;1.30;1.20;;;18.70;39.90;;;;;;5034275;28;20623;-70
2024/01/28 09:08:13;;;;;;;1.43;1.33;;;18.80;39.90;;;;;;5026569;28;20341;-71
2024/01/28 09:10:39;;;;;;;1.30;1.20;;;18.80;40.00;;;;;;5022712;28;20219;-72
2024/01/28 09:13:04;;;;;;;1.40;1.30;;;18.70;40.00;;;;;;5024380;28;20255;-71
2024/01/28 09:15:30;;;;;;;1.20;1.10;;;18.70;39.80;;;;;;5010374;28;20238;-73
2024/01/28 09:17:56;;;;;;;1.20;1.10;;;18.80;40.00;;;;;;5015741;28;20513;-70
2024/01/28 09:20:21;;;;;;;1.20;1.10;;;18.70;39.80;;;;;;5030692;28;20221;-71
2024/01/28 09:22:47;;;;;;;1.40;1.30;;;18.80;39.80;;;;;;5040095;28;20210;-74
2024/01/28 09:25:12;;;;;;;1.50;1.40;;;18.80;39.90;;;;;;5019291;28;20227;-74
2024/01/28 09:27:38;;;;;;;1.23;1.13;;;18.80;39.90;;;;;;5027261;28;20233;-73
2024/01/28 09:30:04;;;;;;;1.30;1.20;;;18.80;39.80;;;;;;5027023;28;20245;-76
2024/01/28 09:32:30;;;;;;;1.50;1.10;;;18.80;39.80;;;;;;5025099;28;20367;-73
2024/01/28 09:34:55;;;;;;;2.60;1.30;;;18.80;39.90;;;;;;5014701;28;20461;-73
2024/01/28 09:37:21;;;;;;;1.40;1.30;;;18.80;39.80;;;;;;5046576;28;20713;-76
2024/01/28 09:39:46;;;;;;;1.63;1.53;;;18.80;39.80;;;;;;5029801;28;20223;-72
2024/01/28 09:42:37;;;;;;;1.30;1.20;;;18.80;39.80;;;;;;5020316;28;20757;-71
2024/01/28 09:45:04;;;;;;;2.80;1.00;;;18.80;39.80;;;;;;5025317;28;20222;-72
2024/01/28 09:47:32;;;;;;;1.63;1.33;;;18.80;39.90;;;;;;5022857;28;20472;-75
2024/01/28 09:49:59;;;;;;;1.57;1.20;;;18.80;39.80;;;;;;5014341;28;20481;-75
2024/01/28 09:52:25;;;;;;;2.10;1.60;;;18.80;39.80;;;;;;5020066;28;20506;-72
2024/01/28 09:54:51;;;;;;;1.53;1.43;;;18.80;39.80;;;;;;5020942;28;21122;-75
2024/01/28 09:57:16;;;;;;;1.97;1.77;;;18.80;39.80;;;;;;5033892;28;20250;-73
2024/01/28 09:59:43;;;;;;;9.50;1.93;;;18.80;39.80;;;;;;5021304;28;20227;-74
2024/01/28 10:02:11;;;;;;;1.50;1.40;;;18.80;39.80;;;;;;4998152;28;20864;-74
2024/01/28 10:04:37;;;;;;;1.43;1.33;;;18.80;39.80;;;;;;5014731;28;23766;-76
2024/01/28 10:07:03;;;;;;;1.73;1.23;;;18.80;39.80;;;;;;5019518;28;20452;-74
2024/01/28 10:09:29;;;;;;;1.30;1.20;;;18.80;39.80;;;;;;5028118;28;20556;-74
2024/01/28 10:12:01;;;;;;;1.40;1.30;;;18.80;39.80;;;;;;5020123;28;20251;-74
2024/01/28 10:14:27;;;;;;;1.47;1.37;;;18.80;39.80;;;;;;5022885;28;20466;-75
2024/01/28 10:16:54;;;;;;;1.87;1.30;;;18.80;39.80;;;;;;5035555;28;20949;-73
2024/01/28 10:19:20;;;;;;;1.40;1.30;;;18.80;39.80;;;;;;5036715;28;20490;-74
2024/01/28 10:21:46;;;;;;;1.30;1.20;;;18.80;39.80;;;;;;5020446;28;20435;-74
2024/01/28 10:24:14;;;;;;;1.37;1.27;;;18.80;39.80;;;;;;5021682;28;20435;-74
2024/01/28 10:26:40;;;;;;;1.50;1.40;;;18.80;39.80;;;;;;5020112;28;20227;-74
2024/01/28 10:29:08;;;;;;;1.50;1.40;;;18.80;39.80;;;;;;5025788;28;20471;-75
2024/01/28 10:31:34;;;;;;;1.30;1.20;;;18.80;39.80;;;;;;5019649;28;20237;-73
2024/01/28 10:33:59;;;;;;;1.43;1.33;;;18.80;39.80;;;;;;5024473;28;20437;-75
2024/01/28 10:36:26;;;;;;;1.87;1.20;;;18.80;39.80;;;;;;5019932;28;20226;-73
2024/01/28 10:38:53;;;;;;;2.90;1.17;;;18.80;39.70;;;;;;5022769;28;20702;-73
2024/01/28 10:41:19;;;;;;;1.50;1.17;;;18.80;39.80;;;;;;5026353;28;20969;-77
2024/01/28 10:43:57;;;;;;;1.30;1.13;;;18.80;39.80;;;;;;5023392;28;20505;-78
2024/01/28 10:46:39;;;;;;;1.30;1.20;;;18.80;39.80;;;;;;5028169;28;20230;-77
2024/01/28 10:49:08;;;;;;;1.57;1.47;;;18.80;39.80;;;;;;5033809;28;20458;-76
2024/01/28 10:51:35;;;;;;;1.63;1.20;;;18.80;39.80;;;;;;5020893;28;20502;-72
2024/01/28 10:54:07;;;;;;;1.20;1.10;;;18.80;39.80;;;;;;5027472;28;20466;-72
2024/01/28 10:56:33;;;;;;;1.30;1.20;;;18.80;39.80;;;;;;5034700;28;20461;-72
2024/01/28 10:58:59;;;;;;;1.80;1.57;;;18.80;39.70;;;;;;5028310;28;20467;-74
2024/01/28 11:01:26;;;;;;;1.27;1.17;;;18.80;39.70;;;;;;5030991;28;20442;-73
2024/01/28 11:03:53;;;;;;;1.20;1.10;;;18.80;39.80;;;;;;5020266;28;20434;-73
2024/01/28 11:06:19;;;;;;;1.40;1.30;;;18.80;39.70;;;;;;5021111;28;20440;-75
2024/01/28 11:08:45;;;;;;;1.37;1.27;;;18.80;39.70;;;;;;5040928;28;20426;-73
2024/01/28 11:11:12;;;;;;;1.70;1.60;;;18.80;39.70;;;;;;5039379;28;20229;-74
2024/01/28 11:13:38;;;;;;;1.73;1.10;;;18.80;39.70;;;;;;5033674;28;20450;-72
2024/01/28 11:16:07;;;;;;;1.27;1.17;;;18.80;39.70;;;;;;5022571;28;20957;-73
2024/01/28 11:18:33;;;;;;;1.40;1.30;;;18.80;39.70;;;;;;5021039;28;20681;-72
2024/01/28 11:21:10;;;;;;;3.07;1.20;;;18.80;39.70;;;;;;5008128;28;20431;-73
2024/01/28 11:23:42;;;;;;;2.17;1.30;;;18.80;39.70;;;;;;5029865;28;20581;-77
2024/01/28 11:26:14;;;;;;;2.93;1.40;;;18.80;39.60;;;;;;5026527;28;20434;-74
2024/01/28 11:28:45;;;;;;;1.60;1.40;;;18.90;39.70;;;;;;5039126;28;20467;-73
2024/01/28 11:31:32;;;;;;;2.53;1.63;;;18.90;39.60;;;;;;5023713;28;20414;-74
2024/01/28 11:34:21;;;;;;;1.33;1.23;;;18.90;39.60;;;;;;5025794;28;20459;-70
2024/01/28 11:36:48;;;;;;;2.30;1.37;;;19.00;39.70;;;;;;5021445;28;20550;-71
2024/01/28 11:39:15;;;;;;;2.10;1.40;;;18.90;39.60;;;;;;5034267;28;20441;-75
2024/01/28 11:41:47;;;;;;;3.00;1.40;;;18.90;39.60;;;;;;5053036;28;20457;-73
2024/01/28 11:44:13;;;;;;;2.90;1.60;;;18.90;39.60;;;;;;5012020;28;21021;-73
2024/01/28 11:46:39;;;;;;;1.80;1.20;;;18.90;39.60;;;;;;5034139;28;20455;-72
2024/01/28 11:49:06;;;;;;;1.53;1.20;;;18.90;39.70;;;;;;5019230;28;20223;-73
2024/01/28 11:51:33;;;;;;;1.60;1.47;;;18.90;39.70;;;;;;5027178;28;20498;-76
2024/01/28 11:54:00;;;;;;;2.90;1.20;;;18.90;39.60;;;;;;5023456;28;20560;-76
2024/01/28 11:56:36;;;;;;;1.93;1.27;;;18.90;39.70;;;;;;5019090;28;20513;-76
2024/01/28 11:59:06;;;;;;;2.60;1.00;;;18.90;39.70;;;;;;5026387;28;20398;-76
2024/01/28 12:01:32;;;;;;;1.50;1.20;;;18.90;39.60;;;;;;5009519;28;20410;-73
2024/01/28 12:03:57;;;;;;;1.30;1.20;;;18.90;39.70;;;;;;5018118;28;20455;-71
2024/01/28 12:06:24;;;;;;;1.37;1.27;;;18.90;39.70;;;;;;5024997;28;20229;-71
2024/01/28 12:08:51;;;;;;;1.40;1.30;;;18.90;39.70;;;;;;5027577;28;20222;-72
2024/01/28 12:11:19;;;;;;;1.27;1.17;;;18.90;39.70;;;;;;5006549;28;20784;-75
2024/01/28 12:13:46;;;;;;;3.23;1.40;;;18.90;39.70;;;;;;5023389;28;20953;-75
2024/01/28 12:16:11;;;;;;;1.40;1.30;;;18.90;39.70;;;;;;5032662;28;20417;-75
2024/01/28 12:18:38;;;;;;;1.30;1.20;;;18.90;39.70;;;;;;5032821;28;20427;-74
2024/01/28 12:21:25;;;;;;;1.57;1.17;;;18.90;39.60;;;;;;5019574;28;20632;-74
2024/01/28 12:24:05;;;;;;;3.10;1.20;;;18.90;39.60;;;;;;5027262;28;20811;-74
2024/01/28 12:26:32;;;;;;;0.97;0.90;;;18.90;39.70;;;;;;5023647;28;20483;-75
2024/01/28 12:28:59;;;;;;;1.17;1.07;;;18.90;39.70;;;;;;5030391;28;20951;-79
2024/01/28 12:31:24;;;;;;;1.17;1.07;;;18.90;39.70;;;;;;5030752;28;21018;-74
2024/01/28 12:33:50;;;;;;;1.33;1.23;;;18.90;39.70;;;;;;5033271;28;20450;-74
2024/01/28 12:36:16;;;;;;;2.80;1.60;;;18.90;39.70;;;;;;5033007;28;20261;-74
2024/01/28 12:38:42;;;;;;;5.60;1.90;;;18.90;39.70;;;;;;5038346;28;20206;-75
2024/01/28 12:41:08;;;;;;;14.13;1.50;;;18.90;39.70;;;;;;5031342;28;20431;-81
2024/01/28 12:43:36;;;;;;;11.30;1.57;;;18.90;39.70;;;;;;5019767;28;20218;-73